createdAt,value
2023-12-28T00:00:04.074Z,1.10
2023-12-28T00:03:11.885Z,1.00
2023-12-28T00:06:20.966Z,1.40
2023-12-28T00:09:29.478Z,0.90
2023-12-28T00:12:36.637Z,1.20
2023-12-28T00:15:44.758Z,1.10
2023-12-28T00:18:53.987Z,1.10
2023-12-28T00:22:01.628Z,1.00
2023-12-28T00:25:09.124Z,1.20
2023-12-28T00:28:18.085Z,1.00
2023-12-28T00:31:25.671Z,1.50
2023-12-28T00:34:34.134Z,1.00
2023-12-28T00:37:42.795Z,1.00
2023-12-28T00:40:49.867Z,1.20
2023-12-28T00:43:57.385Z,1.00
2023-12-28T00:47:06.379Z,1.10
2023-12-28T00:50:14.456Z,1.20
2023-12-28T00:53:22.296Z,1.20
2023-12-28T00:56:29.469Z,0.80
2023-12-28T00:59:40.241Z,1.00
2023-12-28T01:02:48.113Z,1.10
2023-12-28T01:05:56.612Z,1.20
2023-12-28T01:09:05.919Z,1.30
2023-12-28T01:12:16.127Z,0.80
2023-12-28T01:15:24.031Z,1.30
2023-12-28T01:18:32.985Z,1.00
2023-12-28T01:21:40.944Z,1.20
2023-12-28T01:24:47.899Z,1.40
2023-12-28T01:27:57.362Z,1.40
2023-12-28T01:31:06.015Z,2.10
2023-12-28T01:34:13.548Z,1.30
2023-12-28T01:37:21.992Z,1.30
2023-12-28T01:40:31.533Z,1.20
2023-12-28T01:43:38.918Z,1.30
2023-12-28T01:46:47.013Z,1.00
2023-12-28T01:49:56.582Z,1.40
2023-12-28T01:53:03.939Z,1.50
2023-12-28T01:56:11.503Z,1.00
2023-12-28T01:59:19.752Z,1.40
2023-12-28T02:02:27.412Z,1.50
2023-12-28T02:05:34.555Z,1.70
2023-12-28T02:08:43.291Z,2.60
2023-12-28T02:11:50.927Z,2.20
2023-12-28T02:14:58.626Z,2.00
2023-12-28T02:18:06.881Z,2.20
2023-12-28T02:21:15.397Z,2.50
2023-12-28T02:24:23.092Z,2.90
2023-12-28T02:27:30.605Z,3.20
2023-12-28T02:30:40.110Z,3.10
2023-12-28T02:33:47.355Z,2.70
2023-12-28T02:36:55.098Z,2.90
2023-12-28T02:40:03.531Z,1.70
2023-12-28T02:43:11.087Z,1.90
2023-12-28T02:46:18.493Z,2.00
2023-12-28T02:49:27.731Z,1.60
2023-12-28T02:52:34.764Z,1.80
2023-12-28T02:55:42.400Z,1.80
2023-12-28T02:58:50.992Z,2.60
2023-12-28T03:01:58.511Z,2.60
2023-12-28T03:05:05.871Z,2.50
2023-12-28T03:08:14.236Z,2.40
2023-12-28T03:11:23.025Z,2.30
2023-12-28T03:14:31.907Z,2.20
2023-12-28T03:17:40.339Z,1.60
2023-12-28T03:20:49.076Z,2.50
2023-12-28T03:23:56.993Z,2.40
2023-12-28T03:27:04.953Z,2.00
2023-12-28T03:30:13.603Z,2.30
2023-12-28T03:33:21.197Z,1.70
2023-12-28T03:36:29.291Z,2.20
2023-12-28T03:39:37.790Z,2.30
2023-12-28T03:42:44.465Z,2.40
2023-12-28T03:45:52.101Z,2.70
2023-12-28T03:48:59.991Z,2.80
2023-12-28T03:52:09.205Z,2.70
2023-12-28T03:55:16.199Z,3.60
2023-12-28T03:58:24.271Z,3.60
2023-12-28T04:01:32.530Z,2.50
2023-12-28T04:04:41.545Z,2.00
2023-12-28T04:07:49.162Z,1.80
2023-12-28T04:10:58.147Z,2.00
2023-12-28T04:14:06.692Z,1.70
2023-12-28T04:17:14.374Z,1.70
2023-12-28T04:20:22.593Z,2.00
2023-12-28T04:23:30.812Z,1.70
2023-12-28T04:26:38.281Z,1.80
2023-12-28T04:29:46.231Z,2.10
2023-12-28T04:32:55.542Z,2.00
2023-12-28T04:36:03.455Z,1.60
2023-12-28T04:39:10.481Z,1.70
2023-12-28T04:42:20.054Z,1.70
2023-12-28T04:45:27.481Z,1.70
2023-12-28T04:48:35.104Z,1.70
2023-12-28T04:51:44.931Z,1.90
2023-12-28T04:54:52.932Z,1.60
2023-12-28T04:58:00.774Z,1.90
2023-12-28T05:01:09.959Z,1.90
2023-12-28T05:04:18.319Z,1.90
2023-12-28T05:07:26.289Z,1.60
2023-12-28T05:10:35.527Z,2.00
2023-12-28T05:13:43.359Z,1.80
2023-12-28T05:16:50.634Z,1.70
2023-12-28T05:19:58.256Z,1.60
2023-12-28T05:23:06.511Z,1.50
2023-12-28T05:26:14.623Z,1.60
2023-12-28T05:29:21.953Z,1.30
2023-12-28T05:32:31.091Z,1.80
2023-12-28T05:35:39.307Z,1.50
2023-12-28T05:38:46.580Z,1.50
2023-12-28T05:41:55.361Z,1.80
2023-12-28T05:45:03.120Z,1.70
2023-12-28T05:48:11.471Z,1.30
2023-12-28T05:51:20.103Z,1.80
2023-12-28T05:54:28.173Z,1.80
2023-12-28T05:57:35.863Z,1.50
2023-12-28T06:00:43.313Z,2.40
2023-12-28T06:03:52.438Z,1.70
2023-12-28T06:06:59.778Z,1.80
2023-12-28T06:10:07.391Z,1.90
2023-12-28T06:13:16.263Z,1.80
2023-12-28T06:16:23.755Z,1.60
2023-12-28T06:19:30.777Z,1.70
2023-12-28T06:22:40.217Z,1.60
2023-12-28T06:25:47.564Z,1.60
2023-12-28T06:28:54.894Z,1.70
2023-12-28T06:32:03.996Z,1.40
2023-12-28T06:35:11.249Z,1.40
2023-12-28T06:38:18.922Z,1.50
2023-12-28T06:41:26.113Z,1.70
2023-12-28T06:44:35.140Z,1.60
2023-12-28T06:47:42.449Z,1.40
2023-12-28T06:50:50.388Z,1.80
2023-12-28T06:53:59.108Z,1.50
2023-12-28T06:57:07.056Z,1.40
2023-12-28T07:00:14.610Z,1.90
2023-12-28T07:03:23.537Z,1.40
2023-12-28T07:06:31.146Z,1.40
2023-12-28T07:09:38.760Z,1.60
2023-12-28T07:12:47.864Z,1.40
2023-12-28T07:15:58.659Z,1.60
2023-12-28T07:18:56.315Z,1.80
2023-12-28T07:22:04.066Z,1.40
2023-12-28T07:25:13.091Z,1.50
2023-12-28T07:28:21.875Z,1.60
2023-12-28T07:31:29.874Z,1.70
2023-12-28T07:34:39.797Z,1.90
2023-12-28T07:37:47.690Z,1.60
2023-12-28T07:40:55.089Z,2.30
2023-12-28T07:44:04.206Z,1.50
2023-12-28T07:47:11.778Z,1.50
2023-12-28T07:50:19.295Z,1.60
2023-12-28T07:53:28.204Z,1.50
2023-12-28T07:56:36.380Z,1.30
2023-12-28T07:59:44.138Z,1.60
2023-12-28T08:02:52.853Z,1.60
2023-12-28T08:06:00.927Z,1.50
2023-12-28T08:09:07.924Z,1.50
2023-12-28T08:12:15.641Z,1.60
2023-12-28T08:15:24.110Z,1.50
2023-12-28T08:18:31.926Z,1.50
2023-12-28T08:21:41.085Z,1.30
2023-12-28T08:24:50.191Z,1.70
2023-12-28T08:27:57.734Z,1.50
2023-12-28T08:31:05.309Z,1.40
2023-12-28T08:34:14.740Z,1.50
2023-12-28T08:37:22.359Z,1.60
2023-12-28T08:40:29.746Z,1.70
2023-12-28T08:43:39.131Z,1.70
2023-12-28T08:46:46.346Z,1.70
2023-12-28T08:49:54.761Z,1.60
2023-12-28T08:53:02.609Z,1.90
2023-12-28T08:56:11.629Z,1.70
2023-12-28T08:59:19.984Z,1.70
2023-12-28T09:02:27.382Z,1.70
2023-12-28T09:05:37.010Z,1.60
2023-12-28T09:08:44.120Z,1.80
2023-12-28T09:11:52.557Z,1.70
2023-12-28T09:15:01.636Z,1.80
2023-12-28T09:18:09.272Z,1.70
2023-12-28T09:21:17.165Z,1.90
2023-12-28T09:24:26.793Z,1.70
2023-12-28T09:27:35.135Z,1.50
2023-12-28T09:30:43.765Z,1.60
2023-12-28T09:33:50.737Z,1.60
2023-12-28T09:37:00.531Z,1.10
2023-12-28T09:40:07.875Z,1.50
2023-12-28T09:43:15.238Z,1.60
2023-12-28T09:46:24.308Z,1.70
2023-12-28T09:49:32.355Z,2.10
2023-12-28T09:52:39.793Z,1.80
2023-12-28T09:55:49.381Z,2.40
2023-12-28T09:58:57.726Z,1.80
2023-12-28T10:02:05.197Z,3.70
2023-12-28T10:05:13.859Z,4.10
2023-12-28T10:08:21.304Z,1.50
2023-12-28T10:11:29.617Z,1.80
2023-12-28T10:14:38.549Z,1.80
2023-12-28T10:17:45.832Z,2.20
2023-12-28T10:20:53.681Z,1.80
2023-12-28T10:24:01.214Z,1.80
2023-12-28T10:27:10.227Z,1.90
2023-12-28T10:30:18.441Z,2.00
2023-12-28T10:33:26.785Z,2.80
2023-12-28T10:36:36.528Z,2.70
2023-12-28T10:39:44.122Z,2.80
2023-12-28T10:42:52.085Z,2.90
2023-12-28T10:46:01.651Z,2.80
2023-12-28T10:49:09.553Z,2.50
2023-12-28T10:52:16.938Z,2.10
2023-12-28T10:55:25.782Z,2.00
2023-12-28T10:58:33.999Z,1.70
2023-12-28T11:01:41.096Z,1.50
2023-12-28T11:04:49.035Z,1.50
2023-12-28T11:07:58.815Z,3.00
2023-12-28T11:11:06.859Z,1.70
2023-12-28T11:14:14.270Z,1.70
2023-12-28T11:17:23.530Z,1.50
2023-12-28T11:20:31.372Z,1.70
2023-12-28T11:23:38.916Z,1.60
2023-12-28T11:26:48.073Z,1.80
2023-12-28T11:29:55.317Z,1.60
2023-12-28T11:33:03.496Z,1.60
2023-12-28T11:36:13.835Z,1.90
2023-12-28T11:39:21.566Z,1.90
2023-12-28T11:42:28.605Z,1.90
2023-12-28T11:45:35.840Z,1.40
2023-12-28T11:48:45.380Z,1.30
2023-12-28T11:51:53.122Z,1.40
2023-12-28T11:55:01.456Z,1.80
2023-12-28T11:58:11.769Z,1.90
2023-12-28T12:01:11.756Z,1.30
2023-12-28T12:04:19.711Z,1.60
2023-12-28T12:07:29.322Z,2.70
2023-12-28T12:10:37.266Z,1.70
2023-12-28T12:13:44.811Z,1.60
2023-12-28T12:16:55.186Z,2.00
2023-12-28T12:20:02.281Z,1.50
2023-12-28T12:23:10.194Z,1.70
2023-12-28T12:26:18.186Z,1.70
2023-12-28T12:29:29.473Z,1.50
2023-12-28T12:32:37.476Z,1.60
2023-12-28T12:35:45.014Z,1.80
2023-12-28T12:38:54.591Z,1.50
2023-12-28T12:42:02.699Z,1.60
2023-12-28T12:45:10.559Z,1.60
2023-12-28T12:48:20.564Z,1.60
2023-12-28T12:51:28.158Z,2.10
2023-12-28T12:54:35.893Z,2.20
2023-12-28T12:57:44.727Z,2.00
2023-12-28T13:00:52.449Z,1.70
2023-12-28T13:04:00.444Z,1.90
2023-12-28T13:07:07.899Z,2.00
2023-12-28T13:10:17.417Z,2.30
2023-12-28T13:13:24.377Z,1.40
2023-12-28T13:16:32.662Z,1.60
2023-12-28T13:19:41.885Z,1.30
2023-12-28T13:22:50.441Z,1.70
2023-12-28T13:25:57.797Z,1.70
2023-12-28T13:29:06.738Z,1.10
2023-12-28T13:32:14.296Z,1.20
2023-12-28T13:35:21.351Z,1.00
2023-12-28T13:38:30.173Z,1.40
2023-12-28T13:41:38.117Z,1.50
2023-12-28T13:44:45.893Z,1.70
2023-12-28T13:47:55.165Z,1.20
2023-12-28T13:51:03.677Z,1.10
2023-12-28T13:54:11.202Z,1.50
2023-12-28T13:57:19.546Z,1.70
2023-12-28T14:00:28.028Z,1.80
2023-12-28T14:03:35.427Z,1.80
2023-12-28T14:06:43.272Z,1.60
2023-12-28T14:09:52.364Z,1.50
2023-12-28T14:13:00.352Z,1.30
2023-12-28T14:16:08.242Z,1.70
2023-12-28T14:19:17.784Z,1.50
2023-12-28T14:22:25.681Z,1.40
2023-12-28T14:25:33.615Z,1.90
2023-12-28T14:28:43.109Z,1.90
2023-12-28T14:31:50.166Z,2.10
2023-12-28T14:34:57.640Z,2.20
2023-12-28T14:38:04.819Z,1.60
2023-12-28T14:41:14.312Z,1.70
2023-12-28T14:44:21.609Z,1.20
2023-12-28T14:47:29.097Z,1.60
2023-12-28T14:50:37.748Z,1.30
2023-12-28T14:53:45.445Z,1.10
2023-12-28T14:56:55.674Z,1.70
2023-12-28T14:59:54.214Z,2.30
2023-12-28T15:03:01.166Z,1.90
2023-12-28T15:06:08.864Z,1.90
2023-12-28T15:09:17.941Z,1.70
2023-12-28T15:12:25.151Z,1.60
2023-12-28T15:15:32.703Z,2.00
2023-12-28T15:18:40.664Z,1.50
2023-12-28T15:21:49.360Z,1.20
2023-12-28T15:24:58.054Z,1.60
2023-12-28T15:28:05.716Z,1.10
2023-12-28T15:31:14.739Z,1.00
2023-12-28T15:34:22.818Z,1.30
2023-12-28T15:37:30.059Z,1.10
2023-12-28T15:40:38.715Z,0.90
2023-12-28T15:43:46.815Z,1.00
2023-12-28T15:46:53.710Z,1.10
2023-12-28T15:50:02.487Z,1.10
2023-12-28T15:53:09.224Z,1.10
2023-12-28T15:56:19.635Z,0.90
2023-12-28T15:59:16.787Z,1.00
2023-12-28T16:02:25.676Z,1.00
2023-12-28T16:05:33.151Z,1.10
2023-12-28T16:08:39.935Z,1.20
2023-12-28T16:11:48.591Z,1.20
2023-12-28T16:14:55.985Z,1.20
2023-12-28T16:18:04.339Z,1.30
2023-12-28T16:21:13.279Z,1.30
2023-12-28T16:24:20.968Z,1.00
2023-12-28T16:27:28.443Z,1.20
2023-12-28T16:30:37.855Z,1.20
2023-12-28T16:33:45.399Z,1.80
2023-12-28T16:36:53.068Z,1.20
2023-12-28T16:40:02.136Z,1.00
2023-12-28T16:43:09.663Z,1.20
2023-12-28T16:46:16.889Z,1.20
2023-12-28T16:49:24.068Z,1.10
2023-12-28T16:52:32.328Z,1.40
2023-12-28T16:55:39.905Z,1.10
2023-12-28T16:58:47.127Z,0.90
2023-12-28T17:01:56.246Z,1.10
2023-12-28T17:05:04.005Z,1.10
2023-12-28T17:08:11.572Z,1.20
2023-12-28T17:11:20.108Z,1.20
2023-12-28T17:14:27.525Z,1.20
2023-12-28T17:17:35.425Z,1.00
2023-12-28T17:20:44.046Z,1.40
2023-12-28T17:23:51.322Z,1.10
2023-12-28T17:26:58.904Z,1.60
2023-12-28T17:30:05.929Z,1.00
2023-12-28T17:33:15.219Z,1.10
2023-12-28T17:36:22.657Z,1.20
2023-12-28T17:39:30.197Z,1.10
2023-12-28T17:42:39.667Z,1.70
2023-12-28T17:45:46.807Z,1.10
2023-12-28T17:48:54.077Z,1.00
2023-12-28T17:52:02.870Z,1.50
2023-12-28T17:55:10.390Z,1.10
2023-12-28T17:58:17.364Z,1.30
2023-12-28T18:01:26.180Z,1.10
2023-12-28T18:04:33.284Z,1.80
2023-12-28T18:07:40.882Z,1.10
2023-12-28T18:10:48.844Z,1.60
2023-12-28T18:13:58.292Z,1.40
2023-12-28T18:17:07.870Z,1.00
2023-12-28T18:20:15.740Z,0.90
2023-12-28T18:23:24.775Z,1.00
2023-12-28T18:26:32.066Z,1.00
2023-12-28T18:29:39.834Z,1.00
2023-12-28T18:32:48.350Z,1.20
2023-12-28T18:35:55.342Z,1.20
2023-12-28T18:39:02.544Z,1.20
2023-12-28T18:42:03.730Z,1.60
2023-12-28T18:45:10.405Z,1.50
2023-12-28T18:48:18.596Z,1.00
2023-12-28T18:51:26.405Z,1.30
2023-12-28T18:54:34.586Z,1.30
2023-12-28T18:57:42.449Z,1.10
2023-12-28T19:00:50.447Z,2.10
2023-12-28T19:03:59.509Z,1.40
2023-12-28T19:07:06.859Z,1.40
2023-12-28T19:10:14.649Z,1.10
2023-12-28T19:13:23.749Z,1.40
2023-12-28T19:16:33.150Z,1.40
2023-12-28T19:19:40.766Z,1.50
2023-12-28T19:22:49.378Z,1.30
2023-12-28T19:25:56.474Z,1.40
2023-12-28T19:29:03.384Z,1.20
2023-12-28T19:32:10.270Z,1.30
2023-12-28T19:35:19.205Z,1.10
2023-12-28T19:38:26.788Z,1.50
2023-12-28T19:41:33.505Z,1.30
2023-12-28T19:44:43.636Z,1.50
2023-12-28T19:47:50.772Z,1.10
2023-12-28T19:50:57.664Z,1.20
2023-12-28T19:54:06.874Z,1.10
2023-12-28T19:57:14.448Z,1.30
2023-12-28T20:00:21.826Z,1.40
2023-12-28T20:03:30.416Z,1.40
2023-12-28T20:06:38.716Z,1.60
2023-12-28T20:09:46.199Z,1.80
2023-12-28T20:12:54.421Z,1.60
2023-12-28T20:16:01.314Z,1.40
2023-12-28T20:19:08.401Z,1.30
2023-12-28T20:22:16.040Z,0.90
2023-12-28T20:25:16.995Z,1.10
2023-12-28T20:28:24.094Z,1.00
2023-12-28T20:31:31.297Z,1.10
2023-12-28T20:34:41.846Z,1.10
2023-12-28T20:37:51.539Z,1.30
2023-12-28T20:40:59.311Z,1.30
2023-12-28T20:44:07.972Z,1.10
2023-12-28T20:47:15.401Z,1.20
2023-12-28T20:50:22.704Z,1.20
2023-12-28T20:53:31.264Z,1.20
2023-12-28T20:56:42.000Z,0.90
2023-12-28T20:59:48.971Z,1.20
2023-12-28T21:02:56.491Z,1.40
2023-12-28T21:06:05.404Z,1.10
2023-12-28T21:09:13.212Z,1.30
2023-12-28T21:12:20.334Z,1.20
2023-12-28T21:15:29.314Z,1.10
2023-12-28T21:18:36.647Z,1.30
2023-12-28T21:21:44.390Z,1.40
2023-12-28T21:24:53.703Z,1.20
2023-12-28T21:28:01.362Z,0.90
2023-12-28T21:31:08.813Z,1.00
2023-12-28T21:34:17.462Z,1.20
2023-12-28T21:37:24.589Z,1.00
2023-12-28T21:40:32.157Z,1.00
2023-12-28T21:43:38.917Z,0.90
2023-12-28T21:46:48.119Z,1.10
2023-12-28T21:49:56.398Z,1.30
2023-12-28T21:53:03.803Z,1.20
2023-12-28T21:56:05.151Z,1.10
2023-12-28T21:59:12.734Z,1.20
2023-12-28T22:02:20.753Z,1.10
2023-12-28T22:05:30.024Z,1.00
2023-12-28T22:08:37.275Z,1.20
2023-12-28T22:11:44.388Z,0.90
2023-12-28T22:14:53.505Z,0.90
2023-12-28T22:18:01.393Z,1.20
2023-12-28T22:21:09.081Z,1.00
2023-12-28T22:24:16.744Z,0.80
2023-12-28T22:27:24.918Z,0.90
2023-12-28T22:30:32.722Z,1.40
2023-12-28T22:33:40.698Z,0.90
2023-12-28T22:36:48.077Z,0.80
2023-12-28T22:39:48.868Z,1.00
2023-12-28T22:42:55.630Z,0.90
2023-12-28T22:46:02.738Z,1.00
2023-12-28T22:49:09.910Z,1.00
2023-12-28T22:52:19.020Z,0.90
2023-12-28T22:55:26.952Z,0.60
2023-12-28T22:58:34.102Z,0.90
2023-12-28T23:01:43.554Z,1.00
2023-12-28T23:04:55.783Z,1.00
2023-12-28T23:07:53.408Z,1.10
2023-12-28T23:11:01.844Z,1.30
2023-12-28T23:14:09.123Z,0.90
2023-12-28T23:17:17.269Z,1.00
2023-12-28T23:20:24.915Z,1.00
2023-12-28T23:23:33.167Z,1.40
2023-12-28T23:26:40.586Z,1.00
2023-12-28T23:29:47.735Z,1.10
2023-12-28T23:32:56.260Z,1.10
2023-12-28T23:36:03.804Z,1.00
2023-12-28T23:39:11.931Z,1.30
2023-12-28T23:42:20.110Z,1.10
2023-12-28T23:45:27.789Z,1.10
2023-12-28T23:48:35.761Z,1.00
2023-12-28T23:51:43.921Z,1.00
2023-12-28T23:54:52.456Z,1.00
2023-12-28T23:58:00.121Z,1.10
